Time;durP1;ratioP1;P1;durP2;ratioP2;P2;SDS_P1;SDS_P2;PMS_P1;PMS_P2;Temp;Humidity;BMP_temperature;BMP_pressure;BME280_temperature;BME280_humidity;BME280_pressure;Samples;Min_cycle;Max_cycle;Signal;HPM_P1;HPM_P2
2021/07/02 00:01:03;;;;;;;33.50;10.55;;;;;;;20.63;100.00;100413.08;1708933;83;21083;-85
2021/07/02 00:03:29;;;;;;;23.95;10.58;;;;;;;20.64;100.00;100411.14;1708885;84;21051;-85
2021/07/02 00:05:55;;;;;;;28.92;11.10;;;;;;;20.63;100.00;100404.08;1708722;84;20972;-83
2021/07/02 00:08:25;;;;;;;28.27;10.48;;;;;;;20.59;100.00;100400.41;1708789;83;20956;-85
2021/07/02 00:10:49;;;;;;;27.77;10.85;;;;;;;20.60;100.00;100394.58;1708982;83;21064;-90
2021/07/02 00:13:14;;;;;;;28.40;11.12;;;;;;;20.63;100.00;100389.02;1708723;84;21004;-83
2021/07/02 00:15:40;;;;;;;25.35;10.30;;;;;;;20.64;100.00;100390.03;1708915;84;21090;-83
2021/07/02 00:18:06;;;;;;;21.65;9.98;;;;;;;20.60;100.00;100391.05;1708745;84;20862;-83
2021/07/02 00:20:32;;;;;;;27.55;9.90;;;;;;;20.54;100.00;100384.96;1708937;83;20981;-85
2021/07/02 00:22:57;;;;;;;26.68;9.95;;;;;;;20.51;100.00;100389.70;1708610;83;20944;-88
2021/07/02 00:25:25;;;;;;;28.45;9.63;;;;;;;20.46;100.00;100386.35;1708796;84;21027;-85
2021/07/02 00:27:51;;;;;;;24.95;10.23;;;;;;;20.42;100.00;100380.17;1655251;86;21332;-85
2021/07/02 00:30:17;;;;;;;22.98;10.10;;;;;;;20.42;100.00;100374.70;1655647;86;21713;-90
2021/07/02 00:32:43;;;;;;;20.72;9.63;;;;;;;20.42;100.00;100371.16;1657507;86;21425;-85
2021/07/02 00:35:10;;;;;;;23.12;9.73;;;;;;;20.39;100.00;100373.99;1651987;86;21642;-85
2021/07/02 00:37:38;;;;;;;20.15;9.85;;;;;;;20.36;100.00;100365.08;1651055;86;21052;-91
2021/07/02 00:40:04;;;;;;;30.25;9.63;;;;;;;20.34;100.00;100366.53;1657459;86;21139;-84
2021/07/02 00:42:30;;;;;;;22.85;10.80;;;;;;;20.31;100.00;100363.89;1657476;86;21204;-83
2021/07/02 00:44:56;;;;;;;22.73;9.83;;;;;;;20.27;100.00;100373.91;1657365;86;21666;-85
2021/07/02 00:47:22;;;;;;;27.85;10.75;;;;;;;20.25;100.00;100366.58;1652248;85;21201;-84
2021/07/02 00:49:48;;;;;;;27.67;10.45;;;;;;;20.22;100.00;100368.62;1625302;88;20896;-89
2021/07/02 00:52:15;;;;;;;26.93;9.70;;;;;;;20.17;100.00;100368.22;1623103;88;22032;-83
2021/07/02 00:54:44;;;;;;;27.55;10.35;;;;;;;20.13;100.00;100371.39;1592883;88;21546;-85
2021/07/02 00:57:11;;;;;;;28.02;10.38;;;;;;;20.10;100.00;100383.00;1584403;90;21031;-81
2021/07/02 00:59:43;;;;;;;21.00;9.68;;;;;;;20.05;100.00;100381.81;1584340;90;20984;-89
2021/07/02 01:02:10;;;;;;;24.07;10.20;;;;;;;19.98;100.00;100386.20;1564145;90;21056;-90
2021/07/02 01:04:36;;;;;;;25.82;9.68;;;;;;;19.93;100.00;100384.44;1584287;90;21115;-82
2021/07/02 01:07:03;;;;;;;24.67;10.20;;;;;;;19.90;100.00;100389.20;1584215;90;21075;-84
2021/07/02 01:09:30;;;;;;;20.43;9.40;;;;;;;19.87;100.00;100385.18;1622966;88;21161;-85
2021/07/02 01:11:57;;;;;;;25.72;9.43;;;;;;;19.84;100.00;100383.67;1592121;90;21031;-83
2021/07/02 01:14:23;;;;;;;22.75;9.48;;;;;;;19.80;100.00;100391.73;1586961;90;21052;-85
2021/07/02 01:16:49;;;;;;;23.05;9.83;;;;;;;19.77;100.00;100392.95;1586983;90;21118;-90
2021/07/02 01:19:15;;;;;;;28.87;10.28;;;;;;;19.75;100.00;100393.27;1587010;90;21681;-90
2021/07/02 01:21:41;;;;;;;30.25;9.93;;;;;;;19.74;100.00;100390.30;1587293;90;21091;-90
2021/07/02 01:24:07;;;;;;;24.37;9.88;;;;;;;19.71;100.00;100386.29;1599262;87;21023;-85
2021/07/02 01:26:33;;;;;;;25.30;9.70;;;;;;;19.70;100.00;100392.06;1641003;87;21087;-84
2021/07/02 01:29:00;;;;;;;21.23;9.68;;;;;;;19.67;100.00;100389.98;1614978;88;21655;-83
2021/07/02 01:31:27;;;;;;;23.50;10.43;;;;;;;19.66;100.00;100387.82;1657069;84;20948;-90
2021/07/02 01:33:53;;;;;;;25.45;9.08;;;;;;;19.67;100.00;100385.31;1686884;83;21021;-82
2021/07/02 01:36:24;;;;;;;24.87;9.60;;;;;;;19.64;100.00;100380.47;1691892;84;21515;-87
2021/07/02 01:38:50;;;;;;;29.65;10.80;;;;;;;19.62;100.00;100377.82;1626790;87;21565;-87
2021/07/02 01:41:16;;;;;;;21.25;9.15;;;;;;;19.59;100.00;100378.47;1624394;88;21712;-85
2021/07/02 01:43:42;;;;;;;24.25;10.20;;;;;;;19.58;100.00;100376.88;1617588;88;21035;-84
2021/07/02 01:46:08;;;;;;;20.70;9.23;;;;;;;19.59;100.00;100381.20;1617904;88;20924;-88
2021/07/02 01:48:35;;;;;;;24.72;9.55;;;;;;;19.59;100.00;100376.57;1626843;86;21601;-89
2021/07/02 01:51:01;;;;;;;25.80;10.00;;;;;;;19.62;100.00;100362.25;1634952;87;21058;-81
2021/07/02 01:53:27;;;;;;;25.43;10.03;;;;;;;19.62;100.00;100373.72;1635065;87;21109;-87
2021/07/02 01:55:53;;;;;;;23.10;9.60;;;;;;;19.59;100.00;100383.41;1634934;87;20994;-84
2021/07/02 01:58:20;;;;;;;18.30;9.53;;;;;;;19.57;100.00;100382.12;1634912;87;21039;-89
2021/07/02 02:00:46;;;;;;;23.05;8.85;;;;;;;19.58;100.00;100379.61;1634968;87;21362;-84
2021/07/02 02:03:12;;;;;;;21.73;10.13;;;;;;;19.59;100.00;100382.58;1634926;86;21933;-82
2021/07/02 02:05:38;;;;;;;17.67;8.90;;;;;;;19.60;100.00;100388.30;1634802;87;21127;-85
2021/07/02 02:08:05;;;;;;;18.07;9.28;;;;;;;19.61;100.00;100389.89;1634835;87;20971;-84
2021/07/02 02:10:31;;;;;;;27.30;9.38;;;;;;;19.65;100.00;100381.33;1634982;87;21137;-84
2021/07/02 02:13:00;;;;;;;25.20;8.93;;;;;;;19.67;100.00;100383.95;1655315;85;21624;-85
2021/07/02 02:15:26;;;;;;;20.40;9.38;;;;;;;19.72;100.00;100389.82;1662428;86;21544;-87
2021/07/02 02:17:52;;;;;;;20.55;9.00;;;;;;;19.77;100.00;100391.59;1662405;86;21168;-84
2021/07/02 02:20:18;;;;;;;21.42;9.23;;;;;;;19.85;100.00;100391.53;1662422;86;20961;-85
2021/07/02 02:22:44;;;;;;;18.32;8.28;;;;;;;19.95;100.00;100395.86;1662329;86;21076;-85
2021/07/02 02:25:11;;;;;;;30.35;11.15;;;;;;;20.00;100.00;100392.95;1662517;86;21579;-83
2021/07/02 02:27:38;;;;;;;21.42;10.08;;;;;;;20.05;100.00;100391.38;1662438;86;21191;-87
2021/07/02 02:30:07;;;;;;;35.50;10.55;;;;;;;20.15;100.00;100388.87;1662309;86;21141;-83
2021/07/02 02:32:34;;;;;;;25.37;9.55;;;;;;;20.26;100.00;100396.91;1662421;86;21074;-85
2021/07/02 02:35:00;;;;;;;25.02;9.63;;;;;;;20.35;100.00;100398.23;1673761;83;21000;-84
2021/07/02 02:37:26;;;;;;;24.40;10.38;;;;;;;20.43;100.00;100395.45;1715903;83;20846;-86
2021/07/02 02:39:52;;;;;;;26.97;10.82;;;;;;;20.55;100.00;100386.55;1715910;83;21585;-84
2021/07/02 02:42:18;;;;;;;26.62;10.50;;;;;;;20.70;100.00;100387.11;1715853;83;20965;-86
2021/07/02 02:44:44;;;;;;;20.75;9.68;;;;;;;20.87;100.00;100394.62;1715589;83;20925;-84
2021/07/02 02:47:10;;;;;;;22.98;10.15;;;;;;;21.05;100.00;100394.48;1715710;83;20940;-83
2021/07/02 02:49:36;;;;;;;27.15;11.48;;;;;;;21.29;100.00;100384.20;1707028;83;20980;-85
2021/07/02 02:52:02;;;;;;;21.90;10.85;;;;;;;21.58;100.00;100380.55;1706207;84;21004;-83
2021/07/02 02:54:28;;;;;;;31.97;12.40;;;;;;;21.97;100.00;100381.06;1708129;83;21108;-85
2021/07/02 02:57:09;;;;;;;32.00;12.13;;;;;;;22.36;100.00;100380.99;1708639;83;21665;-84
2021/07/02 02:59:37;;;;;;;32.83;12.68;;;;;;;22.76;100.00;100381.59;1708372;84;21536;-84
2021/07/02 03:02:06;;;;;;;34.48;13.25;;;;;;;23.09;100.00;100386.13;1657269;86;21059;-84
2021/07/02 03:04:35;;;;;;;30.08;13.20;;;;;;;23.34;100.00;100388.98;1657292;86;21012;-84
2021/07/02 03:07:03;;;;;;;32.78;12.78;;;;;;;23.57;100.00;100386.45;1657344;86;21867;-82
2021/07/02 03:09:29;;;;;;;35.35;13.43;;;;;;;23.71;100.00;100379.77;1657330;86;21015;-85
2021/07/02 03:11:55;;;;;;;32.35;12.75;;;;;;;23.89;100.00;100385.14;1657205;86;20996;-84
2021/07/02 03:14:22;;;;;;;35.08;12.82;;;;;;;24.01;100.00;100382.87;1634984;86;21093;-81
2021/07/02 03:16:50;;;;;;;31.65;11.50;;;;;;;24.02;100.00;100388.02;1657368;86;20995;-85
2021/07/02 03:19:17;;;;;;;32.10;13.35;;;;;;;24.01;100.00;100390.55;1620605;88;21235;-84
2021/07/02 03:21:44;;;;;;;36.38;13.62;;;;;;;24.05;100.00;100381.00;1620227;88;21099;-82
2021/07/02 03:24:10;;;;;;;31.82;12.80;;;;;;;24.17;100.00;100378.14;1620321;88;20979;-84
2021/07/02 03:26:37;;;;;;;28.62;13.18;;;;;;;24.33;100.00;100375.97;1620383;88;21142;-84
2021/07/02 03:29:06;;;;;;;31.90;12.30;;;;;;;24.37;100.00;100380.38;1620459;88;21550;-84
2021/07/02 03:31:33;;;;;;;30.15;11.05;;;;;;;24.53;100.00;100381.77;1620069;88;39075;-84
2021/07/02 03:33:59;;;;;;;24.67;11.48;;;;;;;24.72;100.00;100371.93;1620328;88;21058;-87
2021/07/02 03:36:25;;;;;;;28.73;10.95;;;;;;;24.92;100.00;100371.58;1620311;88;20970;-84
2021/07/02 03:38:51;;;;;;;23.47;11.00;;;;;;;25.24;100.00;100370.08;1620072;88;20932;-83
2021/07/02 03:41:17;;;;;;;25.43;10.85;;;;;;;25.65;100.00;100374.58;1620750;88;21713;-85
2021/07/02 03:43:43;;;;;;;29.15;10.78;;;;;;;26.01;100.00;100374.61;1599079;88;21109;-84
2021/07/02 03:46:09;;;;;;;22.75;11.18;;;;;;;26.40;100.00;100380.52;1628028;88;20916;-90
2021/07/02 03:48:34;;;;;;;22.00;10.13;;;;;;;26.73;100.00;100371.53;1620128;87;20936;-84
2021/07/02 03:51:00;;;;;;;22.10;10.00;;;;;;;26.94;100.00;100371.00;1620229;88;21104;-83
2021/07/02 03:53:26;;;;;;;21.05;10.53;;;;;;;27.46;100.00;100374.77;1620252;88;20908;-88
2021/07/02 03:55:52;;;;;;;23.73;10.72;;;;;;;28.05;100.00;100377.70;1599332;88;21870;-85
2021/07/02 03:58:18;;;;;;;22.77;10.25;;;;;;;28.53;100.00;100374.87;1623791;86;20875;-84
2021/07/02 04:00:44;;;;;;;19.15;10.05;;;;;;;29.01;100.00;100368.38;1649736;86;20966;-84
2021/07/02 04:03:10;;;;;;;22.75;10.48;;;;;;;29.68;100.00;100358.06;1654228;86;21568;-89
2021/07/02 04:05:36;;;;;;;15.98;10.05;;;;;;;30.39;100.00;100355.05;1631916;86;21062;-83
2021/07/02 04:08:02;;;;;;;25.80;9.33;;;;;;;30.88;100.00;100358.26;1654164;86;21151;-88
2021/07/02 04:10:28;;;;;;;19.55;9.33;;;;;;;31.56;100.00;100354.31;1654272;86;21062;-83
2021/07/02 04:12:54;;;;;;;16.77;8.88;;;;;;;32.12;100.00;100350.28;1654377;86;20923;-85
2021/07/02 04:15:20;;;;;;;16.87;9.45;;;;;;;32.77;99.97;100354.57;1662943;84;20885;-88
2021/07/02 04:17:45;;;;;;;22.13;9.60;;;;;;;33.19;95.41;100354.44;1698142;84;20985;-85
2021/07/02 04:20:13;;;;;;;21.33;9.13;;;;;;;33.44;94.54;100351.27;1708220;84;21135;-84
2021/07/02 04:22:39;;;;;;;19.10;9.35;;;;;;;34.08;89.14;100359.25;1708451;84;20941;-91
2021/07/02 04:25:08;;;;;;;18.27;9.85;;;;;;;34.97;80.24;100363.09;1708741;84;21084;-86
2021/07/02 04:27:34;;;;;;;18.82;10.88;;;;;;;35.36;72.27;100369.09;1708757;83;21060;-86
2021/07/02 04:30:02;;;;;;;22.10;10.68;;;;;;;35.48;69.55;100375.41;1708747;83;20861;-86
2021/07/02 04:32:28;;;;;;;17.75;10.68;;;;;;;35.54;66.58;100377.08;1708602;82;20941;-84
2021/07/02 04:34:54;;;;;;;16.23;11.08;;;;;;;35.76;68.31;100381.57;1708775;83;20882;-86
2021/07/02 04:37:20;;;;;;;17.67;10.60;;;;;;;36.22;64.01;100383.22;1708686;84;20980;-89
2021/07/02 04:39:46;;;;;;;20.37;11.30;;;;;;;36.33;61.09;100393.55;1708614;84;21052;-87
2021/07/02 04:42:12;;;;;;;18.45;10.25;;;;;;;36.27;58.83;100396.72;1708909;84;21067;-86
2021/07/02 04:44:38;;;;;;;16.73;10.00;;;;;;;36.02;57.26;100393.13;1708987;83;21094;-87
2021/07/02 04:47:06;;;;;;;17.07;10.78;;;;;;;35.88;55.96;100392.08;1708701;84;21005;-88
2021/07/02 04:49:35;;;;;;;21.17;11.40;;;;;;;35.47;58.13;100397.64;1708576;83;21048;-90
2021/07/02 04:52:01;;;;;;;22.37;10.65;;;;;;;35.90;59.01;100396.64;1708735;83;21091;-85
2021/07/02 04:54:27;;;;;;;16.95;10.18;;;;;;;36.59;57.30;100396.45;1708846;84;20984;-90
2021/07/02 04:56:53;;;;;;;17.23;10.38;;;;;;;36.96;54.59;100399.20;1708814;84;21952;-87
2021/07/02 04:59:26;;;;;;;17.50;9.68;;;;;;;37.16;53.48;100403.25;1708707;84;20984;-88
2021/07/02 05:01:48;;;;;;;18.35;9.73;;;;;;;37.56;54.29;100393.61;1705533;84;21505;-88
2021/07/02 05:04:14;;;;;;;17.60;9.75;;;;;;;38.22;50.82;100390.41;1708417;83;21504;-89
2021/07/02 05:06:40;;;;;;;25.02;9.25;;;;;;;38.39;48.58;100383.98;1708790;83;20901;-88
2021/07/02 05:09:06;;;;;;;16.85;8.90;;;;;;;39.01;46.46;100358.75;1708883;83;21075;-88
2021/07/02 05:14:06;;;;;;;18.75;9.25;;;;;;;39.78;45.99;100376.45;1687452;85;21070;-86
2021/07/02 05:16:32;;;;;;;17.35;8.58;;;;;;;40.18;43.98;100380.61;1686751;85;21050;-87
2021/07/02 05:18:59;;;;;;;14.33;8.40;;;;;;;40.53;42.59;100373.81;1680325;85;21087;-88
2021/07/02 05:21:25;;;;;;;20.37;8.55;;;;;;;40.69;41.38;100376.97;1680413;85;21587;-87
2021/07/02 05:23:51;;;;;;;17.55;8.28;;;;;;;40.84;40.56;100377.88;1680400;85;21034;-87
2021/07/02 05:26:17;;;;;;;17.23;8.70;;;;;;;41.02;40.08;100385.52;1680481;85;20956;-88
2021/07/02 05:29:02;;;;;;;9.55;6.85;;;;;;;41.24;38.62;100383.88;1680454;85;21608;-88
2021/07/02 05:31:28;;;;;;;12.68;6.45;;;;;;;41.34;35.49;100389.66;1652899;86;21050;-86
2021/07/02 05:33:54;;;;;;;17.05;6.72;;;;;;;41.48;34.20;100388.98;1652996;86;21164;-90
2021/07/02 05:36:19;;;;;;;14.03;6.85;;;;;;;41.64;32.93;100385.59;1652876;86;21700;-93
2021/07/02 05:38:45;;;;;;;15.28;7.30;;;;;;;41.77;32.49;100388.98;1652846;86;20896;-89
2021/07/02 05:41:12;;;;;;;19.95;8.43;;;;;;;41.84;31.91;100390.66;1652869;86;21069;-87
2021/07/02 05:43:38;;;;;;;11.33;6.87;;;;;;;42.12;32.11;100387.00;1652665;86;21069;-87
2021/07/02 05:46:06;;;;;;;18.35;8.08;;;;;;;42.42;29.95;100385.06;1652782;86;21968;-90
2021/07/02 05:48:33;;;;;;;15.65;7.10;;;;;;;42.72;30.79;100382.24;1653892;86;22505;-87
2021/07/02 05:50:59;;;;;;;14.45;7.40;;;;;;;42.93;29.79;100388.17;1661869;86;21078;-91
2021/07/02 05:53:25;;;;;;;12.58;7.20;;;;;;;43.08;28.43;100393.18;1661911;86;21001;-88
2021/07/02 05:55:54;;;;;;;16.50;6.92;;;;;;;43.27;28.46;100395.20;1661947;86;21055;-87
2021/07/02 05:58:20;;;;;;;12.80;7.42;;;;;;;43.43;28.10;100398.12;1661757;86;22165;-86
2021/07/02 06:00:46;;;;;;;9.70;7.40;;;;;;;43.53;27.52;100398.16;1661892;86;20889;-92
2021/07/02 06:03:12;;;;;;;13.13;8.10;;;;;;;43.75;26.79;100399.13;1658197;86;20949;-86
2021/07/02 06:05:38;;;;;;;15.58;9.05;;;;;;;44.15;26.06;100394.75;1661952;86;21615;-88
2021/07/02 06:08:05;;;;;;;15.25;8.98;;;;;;;44.42;26.19;100394.16;1661895;86;21028;-89
2021/07/02 06:10:31;;;;;;;15.03;8.88;;;;;;;44.73;25.77;100389.17;1668814;85;21240;-89
2021/07/02 06:12:57;;;;;;;13.83;9.08;;;;;;;44.98;25.70;100389.63;1687013;85;21008;-87
2021/07/02 06:15:24;;;;;;;11.35;8.18;;;;;;;45.19;24.70;100388.28;1687107;84;21068;-92
2021/07/02 06:17:57;;;;;;;11.38;8.60;;;;;;;45.67;25.22;100399.59;1687308;85;21465;-92
2021/07/02 06:20:24;;;;;;;13.78;7.87;;;;;;;46.07;24.62;100389.17;1686957;85;21571;-91
2021/07/02 06:22:51;;;;;;;13.85;7.70;;;;;;;46.28;23.99;100384.08;1686853;84;21933;-86
2021/07/02 06:25:17;;;;;;;14.75;7.83;;;;;;;46.39;22.40;100387.73;1687151;85;20957;-88
2021/07/02 06:27:43;;;;;;;8.90;7.53;;;;;;;46.34;22.06;100384.21;1687014;84;21067;-88
2021/07/02 06:30:10;;;;;;;12.13;8.60;;;;;;;46.11;21.98;100379.72;1687131;85;21508;-88
2021/07/02 06:32:37;;;;;;;12.23;8.23;;;;;;;45.92;22.32;100380.19;1687256;84;21429;-88
2021/07/02 06:35:03;;;;;;;11.73;7.72;;;;;;;45.95;22.57;100384.86;1686963;84;21075;-89
2021/07/02 06:37:29;;;;;;;13.15;8.35;;;;;;;46.09;22.59;100388.00;1687096;84;20968;-89
2021/07/02 06:39:55;;;;;;;15.48;8.33;;;;;;;46.41;22.34;100385.12;1687149;84;20976;-89
2021/07/02 06:42:21;;;;;;;13.18;8.13;;;;;;;46.46;22.55;100373.60;1687054;84;20995;-87
2021/07/02 06:44:47;;;;;;;12.95;8.60;;;;;;;46.36;22.02;100371.66;1687163;84;21070;-88
2021/07/02 06:47:13;;;;;;;16.70;8.20;;;;;;;46.52;21.89;100369.33;1687170;85;21067;-89
2021/07/02 06:49:39;;;;;;;15.25;8.18;;;;;;;46.63;20.36;100372.20;1628922;86;20891;-89
2021/07/02 06:52:07;;;;;;;12.05;7.67;;;;;;;46.28;20.20;100373.45;1663700;86;21016;-89
2021/07/02 06:54:34;;;;;;;11.53;6.83;;;;;;;45.43;20.84;100370.06;1663618;86;21014;-87
2021/07/02 06:57:00;;;;;;;10.55;6.90;;;;;;;45.24;20.97;100371.09;1663874;85;21137;-89
2021/07/02 06:59:33;;;;;;;14.58;7.55;;;;;;;44.65;21.16;100366.70;1664066;85;21331;-94
2021/07/02 07:02:00;;;;;;;14.65;7.67;;;;;;;44.07;22.55;100365.20;1662728;86;21007;-89
2021/07/02 07:04:35;;;;;;;14.38;7.10;;;;;;;43.80;22.81;100371.28;1663905;85;20999;-91
2021/07/02 07:07:06;;;;;;;16.20;7.42;;;;;;;43.45;23.08;100370.05;1663731;85;21094;-89
2021/07/02 07:09:33;;;;;;;11.22;6.85;;;;;;;43.83;22.87;100361.77;1663986;85;21105;-89
2021/07/02 07:11:59;;;;;;;11.78;7.05;;;;;;;44.27;22.81;100358.72;1663667;86;21126;-89
2021/07/02 07:14:25;;;;;;;13.98;7.00;;;;;;;43.76;22.53;100360.92;1664021;85;21027;-94
2021/07/02 07:16:51;;;;;;;13.75;6.47;;;;;;;43.46;23.43;100361.66;1654858;86;21659;-93
2021/07/02 07:19:23;;;;;;;9.78;6.33;;;;;;;43.91;23.80;100367.95;1664214;86;20994;-93
2021/07/02 07:21:46;;;;;;;14.68;6.10;;;;;;;43.62;22.98;100368.87;1662266;86;20990;-88
2021/07/02 07:24:12;;;;;;;12.73;6.80;;;;;;;43.37;22.92;100370.95;1664027;85;21165;-88
2021/07/02 07:26:38;;;;;;;15.28;6.85;;;;;;;43.77;21.86;100367.38;1663980;85;21755;-88
2021/07/02 07:29:05;;;;;;;10.45;6.28;;;;;;;44.30;22.46;100364.02;1664000;85;20879;-87
2021/07/02 07:31:31;;;;;;;8.85;5.85;;;;;;;44.53;21.05;100361.55;1663790;85;21026;-88
2021/07/02 07:33:58;;;;;;;16.57;6.45;;;;;;;44.55;21.90;100359.65;1663995;85;20959;-88
2021/07/02 07:36:24;;;;;;;12.07;6.40;;;;;;;44.69;21.25;100360.16;1663589;85;21127;-88
2021/07/02 07:38:51;;;;;;;14.98;6.40;;;;;;;44.70;21.65;100360.94;1663784;85;21750;-90
2021/07/02 07:41:18;;;;;;;9.03;6.00;;;;;;;44.73;21.60;100364.23;1663889;86;21078;-85
2021/07/02 07:43:45;;;;;;;11.20;6.20;;;;;;;44.90;22.12;100365.80;1663619;85;21058;-89
2021/07/02 07:46:11;;;;;;;12.58;6.42;;;;;;;44.72;21.85;100369.76;1663754;86;21522;-87
2021/07/02 07:48:37;;;;;;;16.40;6.58;;;;;;;44.36;20.83;100366.30;1663951;86;21037;-89
2021/07/02 07:51:15;;;;;;;11.60;6.92;;;;;;;43.84;22.12;100364.12;1675600;85;21028;-89
2021/07/02 07:53:30;;;;;;;10.40;6.87;;;;;;;43.64;22.79;100369.16;1687420;84;21028;-87
2021/07/02 07:55:56;;;;;;;14.07;7.05;;;;;;;43.83;22.71;100367.45;1687191;84;21617;-87
2021/07/02 07:58:22;;;;;;;16.75;7.37;;;;;;;44.42;22.71;100366.52;1687242;84;20850;-90
2021/07/02 08:00:48;;;;;;;14.87;6.62;;;;;;;45.08;21.90;100357.64;1687177;84;21637;-89
2021/07/02 08:03:14;;;;;;;16.00;6.97;;;;;;;45.33;19.51;100356.66;1687055;84;21007;-93
2021/07/02 08:05:39;;;;;;;14.78;6.95;;;;;;;45.75;20.07;100361.57;1687104;84;20904;-90
2021/07/02 08:08:06;;;;;;;11.05;6.70;;;;;;;46.18;19.96;100368.61;1687368;84;20853;-91
2021/07/02 08:10:32;;;;;;;10.25;6.62;;;;;;;46.59;20.09;100363.11;1687444;84;21031;-90
2021/07/02 08:12:57;;;;;;;16.48;7.95;;;;;;;46.88;19.24;100358.33;1687442;85;21942;-91
2021/07/02 08:15:23;;;;;;;12.78;7.33;;;;;;;47.25;19.56;100348.71;1690996;84;20916;-90
2021/07/02 08:17:49;;;;;;;17.75;7.20;;;;;;;47.39;19.27;100348.92;1687433;85;21626;-90
2021/07/02 08:20:15;;;;;;;13.08;7.47;;;;;;;47.69;18.89;100349.89;1687239;85;20964;-91
2021/07/02 08:22:41;;;;;;;15.98;8.03;;;;;;;47.96;18.94;100346.02;1687305;85;21043;-91
2021/07/02 08:25:11;;;;;;;17.90;8.48;;;;;;;48.13;18.31;100350.23;1687428;85;21787;-92
2021/07/02 08:30:22;;;;;;;16.35;7.65;;;;;;;48.37;19.53;100359.56;1687065;85;21079;-86
2021/07/02 08:32:48;;;;;;;19.10;8.75;;;;;;;48.60;19.61;100353.05;1687052;85;21059;-88
2021/07/02 08:38:38;;;;;;;17.10;7.22;;;;;;;48.88;18.84;100349.94;1687036;85;21013;-86
2021/07/02 08:41:04;;;;;;;11.30;7.30;;;;;;;48.97;18.17;100353.88;1667521;85;21068;-89
2021/07/02 08:43:30;;;;;;;14.98;7.75;;;;;;;49.13;18.71;100347.88;1687271;85;21481;-87
2021/07/02 08:45:58;;;;;;;13.90;7.33;;;;;;;49.16;17.99;100351.77;1687215;84;21004;-88
2021/07/02 08:48:25;;;;;;;13.85;7.78;;;;;;;49.21;18.20;100343.75;1687492;84;21488;-88
2021/07/02 08:50:54;;;;;;;11.00;7.20;;;;;;;49.16;18.66;100351.77;1681836;84;21981;-86
2021/07/02 08:53:21;;;;;;;12.75;6.65;;;;;;;49.05;17.82;100350.55;1680304;85;21020;-87
2021/07/02 08:55:48;;;;;;;13.50;6.70;;;;;;;48.99;18.10;100339.81;1680251;85;21056;-89
2021/07/02 08:58:15;;;;;;;7.92;6.45;;;;;;;48.91;18.15;100340.28;1680188;85;21012;-88
2021/07/02 09:00:42;;;;;;;14.07;6.45;;;;;;;49.12;17.97;100337.72;1680347;85;21547;-89
2021/07/02 09:03:35;;;;;;;9.38;6.05;;;;;;;49.08;18.52;100340.89;1661019;85;21408;-88
2021/07/02 09:06:14;;;;;;;11.30;6.30;;;;;;;48.87;17.99;100336.30;1679868;84;21573;-89
2021/07/02 09:08:56;;;;;;;10.18;6.25;;;;;;;47.91;18.02;100335.38;1680032;85;21012;-89
2021/07/02 09:11:34;;;;;;;13.72;5.95;;;;;;;47.02;19.39;100344.31;1679351;85;21069;-87
2021/07/02 09:14:24;;;;;;;16.07;7.25;;;;;;;47.23;18.47;100334.17;1680061;85;20985;-91
2021/07/02 09:16:50;;;;;;;14.90;6.95;;;;;;;47.33;18.47;100336.08;1678311;85;21034;-92
2021/07/02 09:22:19;;;;;;;12.50;6.67;;;;;;;47.28;18.83;100338.33;1688521;85;21023;-88
2021/07/02 09:24:48;;;;;;;13.75;6.35;;;;;;;47.36;18.80;100336.46;1688924;85;21053;-86
2021/07/02 09:27:33;;;;;;;18.32;6.85;;;;;;;47.34;18.59;100334.80;1689035;85;21565;-87
2021/07/02 09:30:13;;;;;;;14.13;7.15;;;;;;;46.91;18.88;100333.69;1688578;85;21878;-89
2021/07/02 09:32:52;;;;;;;13.28;7.53;;;;;;;46.71;18.22;100325.41;1688866;85;21137;-90
2021/07/02 09:35:19;;;;;;;16.07;7.45;;;;;;;46.26;19.81;100317.56;1649833;86;21115;-88
2021/07/02 09:37:50;;;;;;;13.55;7.20;;;;;;;46.36;20.04;100319.53;1634216;87;21553;-92
2021/07/02 09:40:30;;;;;;;17.00;7.28;;;;;;;46.11;20.57;100317.80;1633844;87;21108;-94
2021/07/02 09:43:18;;;;;;;18.20;7.65;;;;;;;45.90;21.07;100317.23;1630753;87;21813;-88
2021/07/02 09:45:52;;;;;;;17.20;7.70;;;;;;;45.40;20.96;100312.07;1634100;87;21215;-92
2021/07/02 09:48:24;;;;;;;17.40;7.37;;;;;;;45.08;21.89;100307.85;1633939;87;21059;-89
2021/07/02 09:50:57;;;;;;;;;;;;;;;44.99;21.26;100307.28;1636507;86;21179;-93
2021/07/02 09:53:30;;;;;;;12.37;7.03;;;;;;;44.84;21.63;100303.17;1604910;89;20555;-89
2021/07/02 09:56:06;;;;;;;18.27;7.85;;;;;;;44.63;22.23;100313.84;1604911;89;21210;-92
2021/07/02 09:58:39;;;;;;;21.95;8.30;;;;;;;44.48;21.64;100308.91;1578967;89;21594;-90
2021/07/02 10:01:07;;;;;;;16.02;7.87;;;;;;;44.21;21.80;100306.70;1592139;90;21045;-88
2021/07/02 10:03:37;;;;;;;17.70;8.18;;;;;;;44.03;22.09;100309.88;1592129;90;21042;-88
2021/07/02 10:06:07;;;;;;;18.37;7.95;;;;;;;43.90;22.56;100303.14;1592096;90;21192;-87
2021/07/02 10:08:36;;;;;;;12.85;6.55;;;;;;;43.47;22.55;100301.42;1592017;90;21019;-91
2021/07/02 10:11:06;;;;;;;14.53;6.25;;;;;;;43.28;23.88;100306.59;1592041;90;21589;-87
2021/07/02 10:13:36;;;;;;;13.72;7.05;;;;;;;43.17;23.43;100307.21;1592149;90;21117;-87
2021/07/02 10:16:17;;;;;;;16.70;7.87;;;;;;;43.12;22.96;100307.87;1574969;91;21099;-88
2021/07/02 10:18:50;;;;;;;14.73;6.97;;;;;;;42.81;23.81;100302.78;1514363;94;21159;-90
2021/07/02 10:21:19;;;;;;;16.20;6.50;;;;;;;42.56;24.04;100299.24;1471572;97;21192;-88
2021/07/02 10:23:49;;;;;;;16.40;6.55;;;;;;;42.51;24.56;100292.87;1471523;97;21126;-88
2021/07/02 10:26:19;;;;;;;12.85;6.85;;;;;;;42.49;23.96;100293.98;1471787;97;21098;-91
2021/07/02 10:28:46;;;;;;;13.05;6.65;;;;;;;42.42;24.78;100287.30;1471383;97;21086;-92
2021/07/02 10:31:13;;;;;;;13.70;6.45;;;;;;;42.25;24.51;100286.20;1474482;95;21666;-86
2021/07/02 10:33:46;;;;;;;13.72;7.05;;;;;;;42.14;25.23;100279.69;1492522;96;21633;-89
2021/07/02 10:36:15;;;;;;;15.58;6.72;;;;;;;42.10;25.55;100277.05;1479287;97;21633;-87
2021/07/02 10:38:49;;;;;;;12.95;6.47;;;;;;;42.05;25.61;100271.28;1479396;97;21132;-85
2021/07/02 10:44:08;;;;;;;13.53;6.58;;;;;;;42.03;24.94;100281.66;1451003;98;21105;-88
2021/07/02 10:46:53;;;;;;;;;;;;;;;41.98;25.05;100276.06;1457419;98;21652;-88
2021/07/02 10:49:18;;;;;;;16.67;6.45;;;;;;;41.85;25.62;100278.33;1449231;98;20222;-87
2021/07/02 10:51:53;;;;;;;12.78;6.28;;;;;;;41.69;25.20;100285.23;1472836;96;21114;-87
2021/07/02 10:54:26;;;;;;;16.73;6.78;;;;;;;41.53;26.19;100283.64;1486494;93;21200;-91
2021/07/02 10:57:04;;;;;;;16.90;6.83;;;;;;;41.53;26.27;100276.56;1542667;92;21091;-88
2021/07/02 10:59:41;;;;;;;11.75;6.35;;;;;;;41.61;27.15;100276.96;1529056;93;21165;-90
2021/07/02 11:02:23;;;;;;;15.32;6.87;;;;;;;41.64;25.85;100278.83;1506421;95;21050;-87
2021/07/02 11:04:53;;;;;;;13.03;6.50;;;;;;;41.52;26.51;100271.37;1497416;95;21254;-90
2021/07/02 11:07:29;;;;;;;13.58;5.58;;;;;;;41.58;27.17;100265.20;1521491;94;21076;-90
2021/07/02 11:09:59;;;;;;;11.93;5.80;;;;;;;41.74;26.88;100271.84;1502822;95;21082;-89
2021/07/02 11:12:30;;;;;;;11.83;5.55;;;;;;;41.65;26.98;100267.67;1505452;94;21038;-92
2021/07/02 11:18:51;;;;;;;12.28;6.00;;;;;;;41.73;27.35;100268.06;1548307;92;20998;-91
2021/07/02 11:21:19;;;;;;;14.55;5.58;;;;;;;41.76;27.10;100265.68;1532494;93;21125;-91
2021/07/02 11:23:46;;;;;;;12.55;6.53;;;;;;;41.64;26.85;100263.26;1527680;94;21068;-87
2021/07/02 11:26:17;;;;;;;16.12;6.12;;;;;;;41.67;26.00;100262.29;1527700;94;21809;-87
2021/07/02 11:28:53;;;;;;;17.37;5.80;;;;;;;41.64;27.32;100260.43;1525138;94;21263;-87
2021/07/02 11:31:30;;;;;;;17.70;5.95;;;;;;;41.65;26.85;100255.55;1527514;94;21073;-89
2021/07/02 11:34:12;;;;;;;13.30;6.20;;;;;;;41.59;26.71;100261.73;1525640;94;21085;-88